sensor_id;sensor_type;location;lat;lon;timestamp;P1;durP1;ratioP1;P2;durP2;ratioP2
28481;SDS011;15703;49.588;6.260;2022-08-18T00:01:57;8.52;;;7.72;;
28481;SDS011;15703;49.588;6.260;2022-08-18T00:04:20;8.25;;;7.45;;
28481;SDS011;15703;49.588;6.260;2022-08-18T00:07:04;8.13;;;7.43;;
28481;SDS011;15703;49.588;6.260;2022-08-18T00:09:26;7.07;;;6.50;;
28481;SDS011;15703;49.588;6.260;2022-08-18T00:11:53;8.18;;;7.38;;
28481;SDS011;15703;49.588;6.260;2022-08-18T00:14:17;7.82;;;6.80;;
28481;SDS011;15703;49.588;6.260;2022-08-18T00:16:43;7.65;;;7.05;;
28481;SDS011;15703;49.588;6.260;2022-08-18T00:19:05;7.85;;;7.15;;
28481;SDS011;15703;49.588;6.260;2022-08-18T00:21:29;8.02;;;7.32;;
28481;SDS011;15703;49.588;6.260;2022-08-18T00:23:52;8.50;;;7.80;;
28481;SDS011;15703;49.588;6.260;2022-08-18T00:26:14;7.85;;;7.15;;
28481;SDS011;15703;49.588;6.260;2022-08-18T00:28:37;7.30;;;6.70;;
28481;SDS011;15703;49.588;6.260;2022-08-18T00:30:59;7.43;;;6.60;;
28481;SDS011;15703;49.588;6.260;2022-08-18T00:33:21;7.65;;;6.95;;
28481;SDS011;15703;49.588;6.260;2022-08-18T00:35:44;8.05;;;7.43;;
28481;SDS011;15703;49.588;6.260;2022-08-18T00:38:06;7.80;;;7.15;;
28481;SDS011;15703;49.588;6.260;2022-08-18T00:40:46;7.82;;;7.13;;
28481;SDS011;15703;49.588;6.260;2022-08-18T00:43:14;7.32;;;6.72;;
28481;SDS011;15703;49.588;6.260;2022-08-18T00:45:40;7.50;;;6.90;;
28481;SDS011;15703;49.588;6.260;2022-08-18T00:48:04;7.32;;;6.70;;
28481;SDS011;15703;49.588;6.260;2022-08-18T00:50:27;7.20;;;6.60;;
28481;SDS011;15703;49.588;6.260;2022-08-18T00:52:52;7.13;;;6.53;;
28481;SDS011;15703;49.588;6.260;2022-08-18T00:55:16;6.00;;;5.43;;
28481;SDS011;15703;49.588;6.260;2022-08-18T00:57:39;7.05;;;6.38;;
28481;SDS011;15703;49.588;6.260;2022-08-18T01:00:04;7.30;;;6.70;;
28481;SDS011;15703;49.588;6.260;2022-08-18T01:02:32;7.75;;;7.05;;
28481;SDS011;15703;49.588;6.260;2022-08-18T01:04:58;7.68;;;6.97;;
28481;SDS011;15703;49.588;6.260;2022-08-18T01:07:41;8.65;;;7.85;;
28481;SDS011;15703;49.588;6.260;2022-08-18T01:10:08;8.93;;;7.88;;
28481;SDS011;15703;49.588;6.260;2022-08-18T01:12:31;8.25;;;7.55;;
28481;SDS011;15703;49.588;6.260;2022-08-18T01:15:06;8.38;;;7.53;;
28481;SDS011;15703;49.588;6.260;2022-08-18T01:17:48;8.23;;;7.50;;
28481;SDS011;15703;49.588;6.260;2022-08-18T01:23:18;10.13;;;9.13;;
28481;SDS011;15703;49.588;6.260;2022-08-18T01:25:41;9.43;;;8.68;;
28481;SDS011;15703;49.588;6.260;2022-08-18T01:28:20;9.38;;;8.45;;
28481;SDS011;15703;49.588;6.260;2022-08-18T01:30:45;9.35;;;8.50;;
28481;SDS011;15703;49.588;6.260;2022-08-18T01:33:08;8.65;;;7.95;;
28481;SDS011;15703;49.588;6.260;2022-08-18T01:35:32;9.48;;;8.65;;
28481;SDS011;15703;49.588;6.260;2022-08-18T01:38:02;9.13;;;8.32;;
28481;SDS011;15703;49.588;6.260;2022-08-18T01:40:24;8.90;;;8.20;;
28481;SDS011;15703;49.588;6.260;2022-08-18T01:43:06;9.77;;;8.88;;
28481;SDS011;15703;49.588;6.260;2022-08-18T01:45:28;9.05;;;8.25;;
28481;SDS011;15703;49.588;6.260;2022-08-18T01:47:57;9.68;;;8.88;;
28481;SDS011;15703;49.588;6.260;2022-08-18T01:50:20;9.60;;;8.70;;
28481;SDS011;15703;49.588;6.260;2022-08-18T01:52:43;9.80;;;8.90;;
28481;SDS011;15703;49.588;6.260;2022-08-18T01:55:05;9.45;;;8.65;;
28481;SDS011;15703;49.588;6.260;2022-08-18T01:57:28;9.68;;;8.77;;
28481;SDS011;15703;49.588;6.260;2022-08-18T01:59:50;8.82;;;8.13;;
28481;SDS011;15703;49.588;6.260;2022-08-18T02:02:15;9.80;;;8.93;;
28481;SDS011;15703;49.588;6.260;2022-08-18T02:04:39;10.25;;;9.35;;
28481;SDS011;15703;49.588;6.260;2022-08-18T02:07:03;11.43;;;10.35;;
28481;SDS011;15703;49.588;6.260;2022-08-18T02:09:27;9.57;;;8.77;;
28481;SDS011;15703;49.588;6.260;2022-08-18T02:11:49;9.70;;;8.90;;
28481;SDS011;15703;49.588;6.260;2022-08-18T02:14:16;9.60;;;8.73;;
28481;SDS011;15703;49.588;6.260;2022-08-18T02:16:45;9.63;;;8.73;;
28481;SDS011;15703;49.588;6.260;2022-08-18T02:19:07;9.20;;;8.40;;
28481;SDS011;15703;49.588;6.260;2022-08-18T02:21:30;9.35;;;8.45;;
28481;SDS011;15703;49.588;6.260;2022-08-18T02:23:52;8.73;;;8.02;;
28481;SDS011;15703;49.588;6.260;2022-08-18T02:26:15;8.60;;;7.90;;
28481;SDS011;15703;49.588;6.260;2022-08-18T02:28:38;8.43;;;7.72;;
28481;SDS011;15703;49.588;6.260;2022-08-18T02:31:04;8.93;;;8.15;;
28481;SDS011;15703;49.588;6.260;2022-08-18T02:33:28;9.85;;;8.95;;
28481;SDS011;15703;49.588;6.260;2022-08-18T02:35:53;9.50;;;8.70;;
28481;SDS011;15703;49.588;6.260;2022-08-18T02:38:16;8.98;;;8.10;;
28481;SDS011;15703;49.588;6.260;2022-08-18T02:40:38;9.80;;;9.00;;
28481;SDS011;15703;49.588;6.260;2022-08-18T02:43:07;10.23;;;9.43;;
28481;SDS011;15703;49.588;6.260;2022-08-18T02:45:30;9.90;;;9.10;;
28481;SDS011;15703;49.588;6.260;2022-08-18T02:47:53;10.40;;;9.40;;
28481;SDS011;15703;49.588;6.260;2022-08-18T02:50:15;10.35;;;9.40;;
28481;SDS011;15703;49.588;6.260;2022-08-18T02:52:38;9.77;;;8.98;;
28481;SDS011;15703;49.588;6.260;2022-08-18T02:55:01;10.68;;;9.70;;
28481;SDS011;15703;49.588;6.260;2022-08-18T02:57:24;10.32;;;9.32;;
28481;SDS011;15703;49.588;6.260;2022-08-18T02:59:47;11.05;;;10.05;;
28481;SDS011;15703;49.588;6.260;2022-08-18T03:02:10;12.73;;;11.63;;
28481;SDS011;15703;49.588;6.260;2022-08-18T03:04:32;11.48;;;10.57;;
28481;SDS011;15703;49.588;6.260;2022-08-18T03:06:56;12.18;;;11.10;;
28481;SDS011;15703;49.588;6.260;2022-08-18T03:09:18;12.68;;;11.57;;
28481;SDS011;15703;49.588;6.260;2022-08-18T03:11:41;11.88;;;10.88;;
28481;SDS011;15703;49.588;6.260;2022-08-18T03:14:04;11.20;;;10.20;;
28481;SDS011;15703;49.588;6.260;2022-08-18T03:16:31;11.65;;;10.60;;
28481;SDS011;15703;49.588;6.260;2022-08-18T03:18:54;12.35;;;11.23;;
28481;SDS011;15703;49.588;6.260;2022-08-18T03:21:18;12.57;;;11.38;;
28481;SDS011;15703;49.588;6.260;2022-08-18T03:23:44;12.43;;;11.23;;
28481;SDS011;15703;49.588;6.260;2022-08-18T03:26:22;11.23;;;10.27;;
28481;SDS011;15703;49.588;6.260;2022-08-18T03:28:45;11.15;;;10.25;;
28481;SDS011;15703;49.588;6.260;2022-08-18T03:31:09;10.55;;;9.75;;
28481;SDS011;15703;49.588;6.260;2022-08-18T03:33:31;11.98;;;10.98;;
28481;SDS011;15703;49.588;6.260;2022-08-18T03:35:54;11.27;;;10.20;;
28481;SDS011;15703;49.588;6.260;2022-08-18T03:38:16;11.55;;;10.55;;
28481;SDS011;15703;49.588;6.260;2022-08-18T03:40:39;9.98;;;9.07;;
28481;SDS011;15703;49.588;6.260;2022-08-18T03:43:03;9.70;;;8.90;;
28481;SDS011;15703;49.588;6.260;2022-08-18T03:45:46;11.15;;;10.18;;
28481;SDS011;15703;49.588;6.260;2022-08-18T03:48:08;11.48;;;10.48;;
28481;SDS011;15703;49.588;6.260;2022-08-18T03:50:31;11.63;;;10.52;;
28481;SDS011;15703;49.588;6.260;2022-08-18T03:52:54;10.68;;;9.68;;
28481;SDS011;15703;49.588;6.260;2022-08-18T03:55:19;10.40;;;9.50;;
28481;SDS011;15703;49.588;6.260;2022-08-18T03:57:42;10.32;;;9.48;;
28481;SDS011;15703;49.588;6.260;2022-08-18T04:00:06;10.32;;;9.52;;
28481;SDS011;15703;49.588;6.260;2022-08-18T04:02:29;11.40;;;10.40;;
28481;SDS011;15703;49.588;6.260;2022-08-18T04:04:52;12.40;;;11.23;;
28481;SDS011;15703;49.588;6.260;2022-08-18T04:07:15;12.32;;;11.23;;
28481;SDS011;15703;49.588;6.260;2022-08-18T04:09:39;12.40;;;11.20;;
28481;SDS011;15703;49.588;6.260;2022-08-18T04:12:03;13.68;;;12.32;;
28481;SDS011;15703;49.588;6.260;2022-08-18T04:14:33;12.93;;;11.82;;
28481;SDS011;15703;49.588;6.260;2022-08-18T04:16:55;12.23;;;11.20;;
28481;SDS011;15703;49.588;6.260;2022-08-18T04:19:18;14.25;;;12.75;;
28481;SDS011;15703;49.588;6.260;2022-08-18T04:21:49;13.40;;;12.07;;
28481;SDS011;15703;49.588;6.260;2022-08-18T04:24:12;13.73;;;12.48;;
28481;SDS011;15703;49.588;6.260;2022-08-18T04:26:36;13.43;;;12.23;;
28481;SDS011;15703;49.588;6.260;2022-08-18T04:28:58;12.88;;;11.75;;
28481;SDS011;15703;49.588;6.260;2022-08-18T04:31:21;14.02;;;12.65;;
28481;SDS011;15703;49.588;6.260;2022-08-18T04:33:44;13.25;;;12.07;;
28481;SDS011;15703;49.588;6.260;2022-08-18T04:36:11;13.32;;;12.13;;
28481;SDS011;15703;49.588;6.260;2022-08-18T04:38:41;12.25;;;11.15;;
28481;SDS011;15703;49.588;6.260;2022-08-18T04:41:04;12.90;;;11.70;;
28481;SDS011;15703;49.588;6.260;2022-08-18T04:43:27;13.07;;;11.90;;
28481;SDS011;15703;49.588;6.260;2022-08-18T04:45:49;14.30;;;13.10;;
28481;SDS011;15703;49.588;6.260;2022-08-18T04:48:12;15.05;;;13.70;;
28481;SDS011;15703;49.588;6.260;2022-08-18T04:50:37;15.63;;;14.32;;
28481;SDS011;15703;49.588;6.260;2022-08-18T04:52:59;17.10;;;15.30;;
28481;SDS011;15703;49.588;6.260;2022-08-18T04:55:45;15.60;;;14.00;;
28481;SDS011;15703;49.588;6.260;2022-08-18T04:58:08;16.10;;;14.65;;
28481;SDS011;15703;49.588;6.260;2022-08-18T05:00:30;16.15;;;14.73;;
28481;SDS011;15703;49.588;6.260;2022-08-18T05:02:55;16.27;;;14.65;;
28481;SDS011;15703;49.588;6.260;2022-08-18T05:05:17;17.55;;;15.85;;
28481;SDS011;15703;49.588;6.260;2022-08-18T05:07:45;16.45;;;14.98;;
28481;SDS011;15703;49.588;6.260;2022-08-18T05:10:07;16.48;;;14.80;;
28481;SDS011;15703;49.588;6.260;2022-08-18T05:12:30;15.60;;;14.18;;
28481;SDS011;15703;49.588;6.260;2022-08-18T05:14:52;15.15;;;13.75;;
28481;SDS011;15703;49.588;6.260;2022-08-18T05:17:17;15.15;;;13.75;;
28481;SDS011;15703;49.588;6.260;2022-08-18T05:19:39;14.73;;;13.25;;
28481;SDS011;15703;49.588;6.260;2022-08-18T05:22:04;14.80;;;13.50;;
28481;SDS011;15703;49.588;6.260;2022-08-18T05:24:29;15.48;;;14.02;;
28481;SDS011;15703;49.588;6.260;2022-08-18T05:26:57;15.27;;;13.98;;
28481;SDS011;15703;49.588;6.260;2022-08-18T05:29:20;14.52;;;13.23;;
28481;SDS011;15703;49.588;6.260;2022-08-18T05:31:44;14.68;;;13.23;;
28481;SDS011;15703;49.588;6.260;2022-08-18T05:34:13;14.50;;;13.20;;
28481;SDS011;15703;49.588;6.260;2022-08-18T05:37:12;14.60;;;13.23;;
28481;SDS011;15703;49.588;6.260;2022-08-18T05:39:29;13.98;;;12.68;;
28481;SDS011;15703;49.588;6.260;2022-08-18T05:44:17;13.70;;;12.57;;
28481;SDS011;15703;49.588;6.260;2022-08-18T05:46:44;14.88;;;13.57;;
28481;SDS011;15703;49.588;6.260;2022-08-18T05:49:07;14.18;;;12.88;;
28481;SDS011;15703;49.588;6.260;2022-08-18T05:51:37;14.32;;;12.93;;
28481;SDS011;15703;49.588;6.260;2022-08-18T05:54:01;15.35;;;13.85;;
28481;SDS011;15703;49.588;6.260;2022-08-18T05:56:42;14.15;;;12.82;;
28481;SDS011;15703;49.588;6.260;2022-08-18T05:59:06;14.73;;;13.43;;
28481;SDS011;15703;49.588;6.260;2022-08-18T06:01:33;15.32;;;14.02;;
28481;SDS011;15703;49.588;6.260;2022-08-18T06:04:14;14.93;;;13.52;;
28481;SDS011;15703;49.588;6.260;2022-08-18T06:06:37;13.57;;;12.48;;
28481;SDS011;15703;49.588;6.260;2022-08-18T06:09:12;14.63;;;13.43;;
28481;SDS011;15703;49.588;6.260;2022-08-18T06:11:37;14.13;;;12.93;;
28481;SDS011;15703;49.588;6.260;2022-08-18T06:14:00;13.88;;;12.68;;
28481;SDS011;15703;49.588;6.260;2022-08-18T06:26:16;14.73;;;13.43;;
28481;SDS011;15703;49.588;6.260;2022-08-18T06:31:04;16.05;;;14.52;;
28481;SDS011;15703;49.588;6.260;2022-08-18T06:33:35;15.90;;;14.32;;
28481;SDS011;15703;49.588;6.260;2022-08-18T06:36:12;16.67;;;14.93;;
28481;SDS011;15703;49.588;6.260;2022-08-18T06:41:46;15.88;;;14.50;;
28481;SDS011;15703;49.588;6.260;2022-08-18T06:49:02;15.43;;;14.07;;
28481;SDS011;15703;49.588;6.260;2022-08-18T06:51:26;16.15;;;14.85;;
28481;SDS011;15703;49.588;6.260;2022-08-18T06:53:59;16.33;;;14.90;;
28481;SDS011;15703;49.588;6.260;2022-08-18T06:58:47;16.90;;;15.40;;
28481;SDS011;15703;49.588;6.260;2022-08-18T07:01:13;16.95;;;15.43;;
28481;SDS011;15703;49.588;6.260;2022-08-18T07:03:40;16.13;;;14.75;;
28481;SDS011;15703;49.588;6.260;2022-08-18T07:08:36;16.33;;;14.85;;
28481;SDS011;15703;49.588;6.260;2022-08-18T07:11:44;16.08;;;14.57;;
28481;SDS011;15703;49.588;6.260;2022-08-18T07:13:45;16.58;;;14.95;;
28481;SDS011;15703;49.588;6.260;2022-08-18T07:19:12;17.15;;;15.52;;
28481;SDS011;15703;49.588;6.260;2022-08-18T07:21:39;16.85;;;15.35;;
28481;SDS011;15703;49.588;6.260;2022-08-18T07:24:12;16.05;;;14.65;;
28481;SDS011;15703;49.588;6.260;2022-08-18T07:29:20;17.27;;;15.77;;
28481;SDS011;15703;49.588;6.260;2022-08-18T07:31:45;17.23;;;15.63;;
28481;SDS011;15703;49.588;6.260;2022-08-18T07:34:11;17.77;;;16.00;;
28481;SDS011;15703;49.588;6.260;2022-08-18T07:36:37;17.67;;;15.98;;
28481;SDS011;15703;49.588;6.260;2022-08-18T07:39:03;17.67;;;15.98;;
28481;SDS011;15703;49.588;6.260;2022-08-18T07:44:09;17.20;;;15.50;;
28481;SDS011;15703;49.588;6.260;2022-08-18T07:46:42;16.67;;;15.15;;
28481;SDS011;15703;49.588;6.260;2022-08-18T07:49:06;16.58;;;14.77;;
28481;SDS011;15703;49.588;6.260;2022-08-18T07:51:43;15.07;;;13.82;;
28481;SDS011;15703;49.588;6.260;2022-08-18T07:54:26;14.82;;;13.55;;
28481;SDS011;15703;49.588;6.260;2022-08-18T08:04:48;16.08;;;14.60;;
28481;SDS011;15703;49.588;6.260;2022-08-18T08:07:24;16.33;;;14.68;;
28481;SDS011;15703;49.588;6.260;2022-08-18T08:09:57;16.38;;;14.98;;
28481;SDS011;15703;49.588;6.260;2022-08-18T08:14:58;17.67;;;15.98;;
28481;SDS011;15703;49.588;6.260;2022-08-18T08:17:33;18.88;;;16.33;;
28481;SDS011;15703;49.588;6.260;2022-08-18T08:20:10;16.63;;;15.23;;
28481;SDS011;15703;49.588;6.260;2022-08-18T08:22:38;17.52;;;15.75;;
28481;SDS011;15703;49.588;6.260;2022-08-18T08:28:03;18.40;;;16.42;;
28481;SDS011;15703;49.588;6.260;2022-08-18T08:30:28;17.05;;;15.50;;
28481;SDS011;15703;49.588;6.260;2022-08-18T08:33:01;18.55;;;16.75;;
28481;SDS011;15703;49.588;6.260;2022-08-18T08:35:48;17.13;;;15.52;;
28481;SDS011;15703;49.588;6.260;2022-08-18T08:41:07;17.65;;;16.00;;
28481;SDS011;15703;49.588;6.260;2022-08-18T08:43:33;18.70;;;16.80;;
28481;SDS011;15703;49.588;6.260;2022-08-18T08:46:32;19.52;;;17.63;;
28481;SDS011;15703;49.588;6.260;2022-08-18T08:48:51;18.33;;;16.48;;
28481;SDS011;15703;49.588;6.260;2022-08-18T08:53:44;16.83;;;15.35;;
28481;SDS011;15703;49.588;6.260;2022-08-18T08:56:10;18.05;;;16.27;;
28481;SDS011;15703;49.588;6.260;2022-08-18T08:58:57;17.77;;;16.17;;
28481;SDS011;15703;49.588;6.260;2022-08-18T09:03:56;16.48;;;15.07;;
28481;SDS011;15703;49.588;6.260;2022-08-18T09:06:24;17.50;;;15.80;;
28481;SDS011;15703;49.588;6.260;2022-08-18T09:09:07;16.23;;;14.57;;
28481;SDS011;15703;49.588;6.260;2022-08-18T09:17:07;17.73;;;16.02;;
28481;SDS011;15703;49.588;6.260;2022-08-18T09:19:48;17.35;;;15.63;;
28481;SDS011;15703;49.588;6.260;2022-08-18T09:24:54;16.98;;;15.38;;
28481;SDS011;15703;49.588;6.260;2022-08-18T09:29:52;18.20;;;16.50;;
28481;SDS011;15703;49.588;6.260;2022-08-18T09:37:15;18.17;;;16.48;;
28481;SDS011;15703;49.588;6.260;2022-08-18T09:39:42;17.98;;;16.20;;
28481;SDS011;15703;49.588;6.260;2022-08-18T09:53:17;17.10;;;15.57;;
28481;SDS011;15703;49.588;6.260;2022-08-18T09:55:54;16.48;;;15.00;;
28481;SDS011;15703;49.588;6.260;2022-08-18T10:03:32;17.20;;;15.55;;
28481;SDS011;15703;49.588;6.260;2022-08-18T10:05:57;16.85;;;15.35;;
28481;SDS011;15703;49.588;6.260;2022-08-18T10:08:28;16.50;;;15.00;;
28481;SDS011;15703;49.588;6.260;2022-08-18T10:10:59;16.70;;;14.57;;
28481;SDS011;15703;49.588;6.260;2022-08-18T10:13:34;14.40;;;13.13;;
28481;SDS011;15703;49.588;6.260;2022-08-18T10:16:21;14.98;;;13.57;;
28481;SDS011;15703;49.588;6.260;2022-08-18T10:21:29;14.38;;;13.15;;
28481;SDS011;15703;49.588;6.260;2022-08-18T10:24:53;13.73;;;12.43;;
28481;SDS011;15703;49.588;6.260;2022-08-18T10:27:32;13.93;;;12.57;;
28481;SDS011;15703;49.588;6.260;2022-08-18T10:30:00;12.02;;;10.93;;
28481;SDS011;15703;49.588;6.260;2022-08-18T10:32:24;11.45;;;10.32;;
28481;SDS011;15703;49.588;6.260;2022-08-18T10:34:56;13.05;;;11.85;;
28481;SDS011;15703;49.588;6.260;2022-08-18T10:37:24;11.60;;;10.60;;
28481;SDS011;15703;49.588;6.260;2022-08-18T10:39:53;10.65;;;9.60;;
28481;SDS011;15703;49.588;6.260;2022-08-18T10:42:19;10.65;;;9.63;;
28481;SDS011;15703;49.588;6.260;2022-08-18T10:44:43;9.98;;;9.18;;
28481;SDS011;15703;49.588;6.260;2022-08-18T10:47:07;13.25;;;11.95;;
28481;SDS011;15703;49.588;6.260;2022-08-18T10:49:32;9.75;;;8.93;;
28481;SDS011;15703;49.588;6.260;2022-08-18T10:52:26;8.25;;;7.50;;
28481;SDS011;15703;49.588;6.260;2022-08-18T10:57:32;7.50;;;6.88;;
28481;SDS011;15703;49.588;6.260;2022-08-18T11:00:03;7.70;;;7.00;;
28481;SDS011;15703;49.588;6.260;2022-08-18T11:05:11;7.20;;;6.60;;
28481;SDS011;15703;49.588;6.260;2022-08-18T11:07:35;6.68;;;6.18;;
28481;SDS011;15703;49.588;6.260;2022-08-18T11:10:14;7.00;;;6.40;;
28481;SDS011;15703;49.588;6.260;2022-08-18T11:20:40;6.50;;;6.00;;
28481;SDS011;15703;49.588;6.260;2022-08-18T11:23:11;8.13;;;7.35;;
28481;SDS011;15703;49.588;6.260;2022-08-18T11:25:35;6.40;;;5.90;;
28481;SDS011;15703;49.588;6.260;2022-08-18T11:28:00;6.18;;;5.68;;
28481;SDS011;15703;49.588;6.260;2022-08-18T11:30:41;7.40;;;6.70;;
28481;SDS011;15703;49.588;6.260;2022-08-18T11:33:06;7.05;;;6.45;;
28481;SDS011;15703;49.588;6.260;2022-08-18T11:35:33;7.05;;;6.45;;
28481;SDS011;15703;49.588;6.260;2022-08-18T11:38:02;6.72;;;6.20;;
28481;SDS011;15703;49.588;6.260;2022-08-18T11:40:33;6.45;;;5.95;;
28481;SDS011;15703;49.588;6.260;2022-08-18T11:43:18;6.95;;;6.35;;
28481;SDS011;15703;49.588;6.260;2022-08-18T11:50:32;6.45;;;5.72;;
28481;SDS011;15703;49.588;6.260;2022-08-18T11:52:55;7.07;;;6.47;;
28481;SDS011;15703;49.588;6.260;2022-08-18T11:55:27;6.65;;;6.15;;
28481;SDS011;15703;49.588;6.260;2022-08-18T11:57:51;7.13;;;6.53;;
28481;SDS011;15703;49.588;6.260;2022-08-18T12:03:04;5.65;;;5.15;;
28481;SDS011;15703;49.588;6.260;2022-08-18T12:05:27;6.60;;;5.95;;
28481;SDS011;15703;49.588;6.260;2022-08-18T12:08:15;6.68;;;6.18;;
28481;SDS011;15703;49.588;6.260;2022-08-18T12:11:02;6.80;;;6.22;;
28481;SDS011;15703;49.588;6.260;2022-08-18T12:13:46;6.78;;;6.03;;
28481;SDS011;15703;49.588;6.260;2022-08-18T12:18:33;6.47;;;5.88;;
28481;SDS011;15703;49.588;6.260;2022-08-18T12:20:56;5.75;;;5.25;;
28481;SDS011;15703;49.588;6.260;2022-08-18T12:23:19;5.60;;;5.20;;
28481;SDS011;15703;49.588;6.260;2022-08-18T12:25:41;8.55;;;5.82;;
28481;SDS011;15703;49.588;6.260;2022-08-18T12:28:04;6.05;;;5.55;;
28481;SDS011;15703;49.588;6.260;2022-08-18T12:30:46;7.03;;;6.30;;
28481;SDS011;15703;49.588;6.260;2022-08-18T12:33:17;5.22;;;4.82;;
28481;SDS011;15703;49.588;6.260;2022-08-18T12:35:54;5.55;;;5.10;;
28481;SDS011;15703;49.588;6.260;2022-08-18T12:38:16;5.70;;;5.20;;
28481;SDS011;15703;49.588;6.260;2022-08-18T12:40:40;6.00;;;5.50;;
28481;SDS011;15703;49.588;6.260;2022-08-18T12:43:02;5.93;;;5.43;;
28481;SDS011;15703;49.588;6.260;2022-08-18T12:45:26;4.63;;;4.22;;
28481;SDS011;15703;49.588;6.260;2022-08-18T12:47:50;6.97;;;4.90;;
28481;SDS011;15703;49.588;6.260;2022-08-18T12:50:13;5.47;;;5.07;;
28481;SDS011;15703;49.588;6.260;2022-08-18T12:52:35;5.70;;;5.30;;
28481;SDS011;15703;49.588;6.260;2022-08-18T12:54:59;5.22;;;4.72;;
28481;SDS011;15703;49.588;6.260;2022-08-18T12:57:24;5.63;;;5.00;;
28481;SDS011;15703;49.588;6.260;2022-08-18T13:00:07;7.63;;;6.93;;
28481;SDS011;15703;49.588;6.260;2022-08-18T13:02:37;7.43;;;6.88;;
28481;SDS011;15703;49.588;6.260;2022-08-18T13:05:02;7.35;;;6.78;;
28481;SDS011;15703;49.588;6.260;2022-08-18T13:07:26;5.97;;;5.47;;
28481;SDS011;15703;49.588;6.260;2022-08-18T13:09:50;5.38;;;4.88;;
28481;SDS011;15703;49.588;6.260;2022-08-18T13:12:15;5.90;;;5.40;;
28481;SDS011;15703;49.588;6.260;2022-08-18T13:14:37;5.32;;;4.93;;
28481;SDS011;15703;49.588;6.260;2022-08-18T13:17:03;5.78;;;5.18;;
28481;SDS011;15703;49.588;6.260;2022-08-18T13:19:31;5.88;;;5.38;;
28481;SDS011;15703;49.588;6.260;2022-08-18T13:21:54;5.35;;;4.85;;
28481;SDS011;15703;49.588;6.260;2022-08-18T13:24:17;5.80;;;5.00;;
28481;SDS011;15703;49.588;6.260;2022-08-18T13:26:43;5.65;;;5.20;;
28481;SDS011;15703;49.588;6.260;2022-08-18T13:29:06;6.40;;;5.80;;
28481;SDS011;15703;49.588;6.260;2022-08-18T13:31:30;6.40;;;5.88;;
28481;SDS011;15703;49.588;6.260;2022-08-18T13:33:53;4.78;;;4.28;;
28481;SDS011;15703;49.588;6.260;2022-08-18T13:36:25;5.25;;;4.85;;
28481;SDS011;15703;49.588;6.260;2022-08-18T13:38:50;5.18;;;4.78;;
28481;SDS011;15703;49.588;6.260;2022-08-18T13:41:15;5.50;;;5.00;;
28481;SDS011;15703;49.588;6.260;2022-08-18T13:43:44;5.75;;;5.25;;
28481;SDS011;15703;49.588;6.260;2022-08-18T13:46:09;5.63;;;5.07;;
28481;SDS011;15703;49.588;6.260;2022-08-18T13:48:31;5.47;;;5.00;;
28481;SDS011;15703;49.588;6.260;2022-08-18T13:50:54;5.25;;;4.85;;
28481;SDS011;15703;49.588;6.260;2022-08-18T13:53:20;5.03;;;4.53;;
28481;SDS011;15703;49.588;6.260;2022-08-18T13:55:42;5.05;;;4.65;;
28481;SDS011;15703;49.588;6.260;2022-08-18T13:58:05;4.90;;;4.60;;
28481;SDS011;15703;49.588;6.260;2022-08-18T14:00:40;5.15;;;4.75;;
28481;SDS011;15703;49.588;6.260;2022-08-18T14:03:03;5.00;;;4.63;;
28481;SDS011;15703;49.588;6.260;2022-08-18T14:05:28;6.03;;;5.50;;
28481;SDS011;15703;49.588;6.260;2022-08-18T14:08:11;5.38;;;4.95;;
28481;SDS011;15703;49.588;6.260;2022-08-18T14:10:39;5.05;;;4.65;;
28481;SDS011;15703;49.588;6.260;2022-08-18T14:13:03;5.00;;;4.60;;
28481;SDS011;15703;49.588;6.260;2022-08-18T14:15:44;5.35;;;4.90;;
28481;SDS011;15703;49.588;6.260;2022-08-18T14:18:13;4.72;;;4.28;;
28481;SDS011;15703;49.588;6.260;2022-08-18T14:20:36;5.30;;;4.57;;
28481;SDS011;15703;49.588;6.260;2022-08-18T14:23:18;5.82;;;4.70;;
28481;SDS011;15703;49.588;6.260;2022-08-18T14:26:04;5.15;;;4.75;;
28481;SDS011;15703;49.588;6.260;2022-08-18T14:28:47;5.07;;;4.68;;
28481;SDS011;15703;49.588;6.260;2022-08-18T14:31:12;5.60;;;5.20;;
28481;SDS011;15703;49.588;6.260;2022-08-18T14:33:40;5.15;;;4.75;;
28481;SDS011;15703;49.588;6.260;2022-08-18T14:36:14;8.32;;;5.32;;
28481;SDS011;15703;49.588;6.260;2022-08-18T14:38:38;4.70;;;4.30;;
28481;SDS011;15703;49.588;6.260;2022-08-18T14:41:01;5.38;;;4.90;;
28481;SDS011;15703;49.588;6.260;2022-08-18T14:43:26;5.22;;;4.72;;
28481;SDS011;15703;49.588;6.260;2022-08-18T14:46:08;5.20;;;4.80;;
28481;SDS011;15703;49.588;6.260;2022-08-18T14:48:30;5.90;;;5.22;;
28481;SDS011;15703;49.588;6.260;2022-08-18T14:50:54;6.65;;;6.13;;
28481;SDS011;15703;49.588;6.260;2022-08-18T14:53:19;7.53;;;6.93;;
28481;SDS011;15703;49.588;6.260;2022-08-18T14:55:42;6.53;;;6.03;;
28481;SDS011;15703;49.588;6.260;2022-08-18T14:58:09;7.38;;;6.78;;
28481;SDS011;15703;49.588;6.260;2022-08-18T15:00:32;5.82;;;5.38;;
28481;SDS011;15703;49.588;6.260;2022-08-18T15:03:10;7.63;;;6.88;;
28481;SDS011;15703;49.588;6.260;2022-08-18T15:05:32;5.97;;;5.47;;
28481;SDS011;15703;49.588;6.260;2022-08-18T15:07:55;5.63;;;5.13;;
28481;SDS011;15703;49.588;6.260;2022-08-18T15:10:19;5.93;;;5.32;;
28481;SDS011;15703;49.588;6.260;2022-08-18T15:12:51;6.28;;;5.18;;
28481;SDS011;15703;49.588;6.260;2022-08-18T15:15:14;7.03;;;5.07;;
28481;SDS011;15703;49.588;6.260;2022-08-18T15:17:39;5.72;;;5.22;;
28481;SDS011;15703;49.588;6.260;2022-08-18T15:20:05;6.05;;;5.43;;
28481;SDS011;15703;49.588;6.260;2022-08-18T15:22:29;7.07;;;6.38;;
28481;SDS011;15703;49.588;6.260;2022-08-18T15:25:11;6.15;;;5.55;;
28481;SDS011;15703;49.588;6.260;2022-08-18T15:27:52;6.38;;;5.80;;
28481;SDS011;15703;49.588;6.260;2022-08-18T15:30:15;6.30;;;5.78;;
28481;SDS011;15703;49.588;6.260;2022-08-18T15:32:40;5.97;;;5.47;;
28481;SDS011;15703;49.588;6.260;2022-08-18T15:35:03;5.07;;;4.47;;
28481;SDS011;15703;49.588;6.260;2022-08-18T15:37:35;5.60;;;5.15;;
28481;SDS011;15703;49.588;6.260;2022-08-18T15:40:14;5.47;;;4.90;;
28481;SDS011;15703;49.588;6.260;2022-08-18T15:42:57;6.13;;;5.63;;
28481;SDS011;15703;49.588;6.260;2022-08-18T15:45:34;6.80;;;6.30;;
28481;SDS011;15703;49.588;6.260;2022-08-18T15:48:17;6.38;;;5.82;;
28481;SDS011;15703;49.588;6.260;2022-08-18T15:50:40;6.53;;;6.00;;
28481;SDS011;15703;49.588;6.260;2022-08-18T15:53:11;6.63;;;6.05;;
28481;SDS011;15703;49.588;6.260;2022-08-18T15:55:34;6.30;;;5.80;;
28481;SDS011;15703;49.588;6.260;2022-08-18T15:57:57;7.03;;;6.45;;
28481;SDS011;15703;49.588;6.260;2022-08-18T16:00:21;6.50;;;6.00;;
28481;SDS011;15703;49.588;6.260;2022-08-18T16:02:50;5.60;;;5.10;;
28481;SDS011;15703;49.588;6.260;2022-08-18T16:05:13;6.30;;;5.80;;
28481;SDS011;15703;49.588;6.260;2022-08-18T16:07:45;6.70;;;5.55;;
28481;SDS011;15703;49.588;6.260;2022-08-18T16:10:08;6.05;;;5.65;;
28481;SDS011;15703;49.588;6.260;2022-08-18T16:12:30;6.00;;;5.40;;
28481;SDS011;15703;49.588;6.260;2022-08-18T16:14:53;5.93;;;5.43;;
28481;SDS011;15703;49.588;6.260;2022-08-18T16:17:15;5.65;;;5.25;;
28481;SDS011;15703;49.588;6.260;2022-08-18T16:19:50;6.53;;;6.03;;
28481;SDS011;15703;49.588;6.260;2022-08-18T16:22:15;6.25;;;5.65;;
28481;SDS011;15703;49.588;6.260;2022-08-18T16:24:38;6.20;;;5.70;;
28481;SDS011;15703;49.588;6.260;2022-08-18T16:27:00;6.72;;;6.13;;
28481;SDS011;15703;49.588;6.260;2022-08-18T16:29:23;6.07;;;5.68;;
28481;SDS011;15703;49.588;6.260;2022-08-18T16:31:45;6.97;;;6.40;;
28481;SDS011;15703;49.588;6.260;2022-08-18T16:34:07;6.57;;;6.07;;
28481;SDS011;15703;49.588;6.260;2022-08-18T16:36:29;6.60;;;6.00;;